createdAt,value
2022-08-16T00:02:29.516Z,2.53
2022-08-16T00:05:00.011Z,2.58
2022-08-16T00:07:29.286Z,2.70
2022-08-16T00:09:57.592Z,2.40
2022-08-16T00:12:27.260Z,2.75
2022-08-16T00:14:56.394Z,2.88
2022-08-16T00:17:25.183Z,3.53
2022-08-16T00:19:53.653Z,2.65
2022-08-16T00:22:21.337Z,2.70
2022-08-16T00:27:18.655Z,3.03
2022-08-16T00:29:45.781Z,2.30
2022-08-16T00:32:13.456Z,2.45
2022-08-16T00:34:53.262Z,3.17
2022-08-16T00:37:24.490Z,3.10
2022-08-16T00:39:57.929Z,4.18
2022-08-16T00:42:30.132Z,4.10
2022-08-16T00:45:06.321Z,4.40
2022-08-16T00:47:35.403Z,4.72
2022-08-16T00:50:05.358Z,4.97
2022-08-16T00:52:38.852Z,5.05
2022-08-16T00:55:17.862Z,4.25
2022-08-16T00:58:00.156Z,4.43
2022-08-16T01:00:32.579Z,4.30
2022-08-16T01:03:02.362Z,4.70
2022-08-16T01:05:30.547Z,5.10
2022-08-16T01:08:00.082Z,4.75
2022-08-16T01:10:31.886Z,4.57
2022-08-16T01:13:05.292Z,5.00
2022-08-16T01:15:34.584Z,4.43
2022-08-16T01:18:04.510Z,4.72
2022-08-16T01:23:13.684Z,4.50
2022-08-16T01:25:59.732Z,4.38
2022-08-16T01:28:30.883Z,4.60
2022-08-16T01:30:59.226Z,4.65
2022-08-16T01:33:33.460Z,4.10
2022-08-16T01:36:11.723Z,4.47
2022-08-16T01:38:48.946Z,4.28
2022-08-16T01:41:29.715Z,4.28
2022-08-16T01:44:01.166Z,4.53
2022-08-16T01:46:41.965Z,4.47
2022-08-16T01:49:14.080Z,4.32
2022-08-16T01:51:44.206Z,4.82
2022-08-16T01:54:13.334Z,4.40
2022-08-16T01:56:42.393Z,4.93
2022-08-16T01:59:16.040Z,4.28
2022-08-16T02:01:49.549Z,4.30
2022-08-16T02:04:48.347Z,4.55
2022-08-16T02:07:11.339Z,3.78
2022-08-16T02:09:39.051Z,3.97
2022-08-16T02:12:49.559Z,4.18
2022-08-16T02:14:54.231Z,4.45
2022-08-16T02:17:21.600Z,3.80
2022-08-16T02:19:58.922Z,4.13
2022-08-16T02:22:33.783Z,4.38
2022-08-16T02:25:03.822Z,4.82
2022-08-16T02:27:31.071Z,4.30
2022-08-16T02:30:05.624Z,3.90
2022-08-16T02:33:02.441Z,4.00
2022-08-16T02:35:23.239Z,4.50
2022-08-16T02:37:52.338Z,4.10
2022-08-16T02:40:21.672Z,4.55
2022-08-16T02:42:50.678Z,4.15
2022-08-16T02:45:20.419Z,4.28
2022-08-16T02:48:00.783Z,4.18
2022-08-16T02:50:54.256Z,4.45
2022-08-16T02:53:25.180Z,4.70
2022-08-16T02:55:53.816Z,4.07
2022-08-16T02:58:24.827Z,4.38
2022-08-16T03:00:53.085Z,4.18
2022-08-16T03:03:23.203Z,4.13
2022-08-16T03:05:53.024Z,4.47
2022-08-16T03:08:49.851Z,4.30
2022-08-16T03:11:16.951Z,4.28
2022-08-16T03:13:51.255Z,4.65
2022-08-16T03:16:38.313Z,4.47
2022-08-16T03:19:08.380Z,4.22
2022-08-16T03:21:37.737Z,4.22
2022-08-16T03:24:28.875Z,4.53
2022-08-16T03:26:57.748Z,3.92
2022-08-16T03:29:30.529Z,4.20
2022-08-16T03:31:59.050Z,4.22
2022-08-16T03:34:26.566Z,3.60
2022-08-16T03:36:53.553Z,3.80
2022-08-16T03:39:20.823Z,4.25
2022-08-16T03:41:50.540Z,3.85
2022-08-16T03:44:44.877Z,3.97
2022-08-16T03:47:04.925Z,3.80
2022-08-16T03:49:37.672Z,3.80
2022-08-16T03:52:06.144Z,4.15
2022-08-16T03:54:35.663Z,4.45
2022-08-16T03:57:05.173Z,4.55
2022-08-16T03:59:32.430Z,4.00
2022-08-16T04:02:00.862Z,4.15
2022-08-16T04:04:33.007Z,5.07
2022-08-16T04:07:04.090Z,4.07
2022-08-16T04:09:35.448Z,4.07
2022-08-16T04:12:04.559Z,3.75
2022-08-16T04:14:46.441Z,3.63
2022-08-16T04:17:15.639Z,4.05
2022-08-16T04:19:45.564Z,4.15
2022-08-16T04:22:13.560Z,3.97
2022-08-16T04:24:40.107Z,4.88
2022-08-16T04:27:08.918Z,4.35
2022-08-16T04:29:46.020Z,3.60
2022-08-16T04:32:13.890Z,3.70
2022-08-16T04:34:40.636Z,3.80
2022-08-16T04:37:07.927Z,4.47
2022-08-16T04:39:45.847Z,3.80
2022-08-16T04:42:15.407Z,3.95
2022-08-16T04:44:54.066Z,4.20
2022-08-16T04:47:25.080Z,4.65
2022-08-16T04:49:58.654Z,4.20
2022-08-16T04:52:32.776Z,5.03
2022-08-16T04:55:09.571Z,5.10
2022-08-16T04:57:38.455Z,4.38
2022-08-16T05:00:32.591Z,4.25
2022-08-16T05:05:32.726Z,4.30
2022-08-16T05:08:01.557Z,4.57
2022-08-16T05:10:48.218Z,4.90
2022-08-16T05:13:17.500Z,4.63
2022-08-16T05:15:44.120Z,5.03
2022-08-16T05:18:15.819Z,4.82
2022-08-16T05:20:54.067Z,4.68
2022-08-16T05:23:31.742Z,4.68
2022-08-16T05:25:59.772Z,5.18
2022-08-16T05:28:30.931Z,4.70
2022-08-16T05:31:04.913Z,4.65
2022-08-16T05:33:33.699Z,4.80
2022-08-16T05:36:00.482Z,4.97
2022-08-16T05:38:39.179Z,4.90
2022-08-16T05:41:07.444Z,5.35
2022-08-16T05:43:46.599Z,4.70
2022-08-16T05:46:28.982Z,4.75
2022-08-16T05:49:08.622Z,4.47
2022-08-16T05:51:40.237Z,4.07
2022-08-16T05:54:11.633Z,4.88
2022-08-16T05:56:41.586Z,4.72
2022-08-16T05:59:10.024Z,3.92
2022-08-16T06:01:39.044Z,3.97
2022-08-16T06:04:13.485Z,3.72
2022-08-16T06:06:56.968Z,5.30
2022-08-16T06:09:25.897Z,3.80
2022-08-16T06:12:10.443Z,3.70
2022-08-16T06:14:37.915Z,3.80
2022-08-16T06:17:07.303Z,4.00
2022-08-16T06:19:35.785Z,4.07
2022-08-16T06:22:02.731Z,3.75
2022-08-16T06:24:54.065Z,3.63
2022-08-16T06:27:16.090Z,4.30
2022-08-16T06:29:49.919Z,3.20
2022-08-16T06:32:27.392Z,3.65
2022-08-16T06:34:56.649Z,3.53
2022-08-16T06:37:24.238Z,4.07
2022-08-16T06:40:05.000Z,4.28
2022-08-16T06:42:53.965Z,3.55
2022-08-16T06:45:24.121Z,3.97
2022-08-16T06:47:56.439Z,3.47
2022-08-16T06:50:29.507Z,3.90
2022-08-16T06:53:00.308Z,3.55
2022-08-16T06:55:34.056Z,3.80
2022-08-16T06:58:01.769Z,3.42
2022-08-16T07:00:35.714Z,3.42
2022-08-16T07:03:28.095Z,4.03
2022-08-16T07:05:53.918Z,3.35
2022-08-16T07:08:21.014Z,3.72
2022-08-16T07:10:48.077Z,3.95
2022-08-16T07:13:23.033Z,3.80
2022-08-16T07:16:03.211Z,3.35
2022-08-16T07:18:29.982Z,3.83
2022-08-16T07:21:01.755Z,3.15
2022-08-16T07:23:37.365Z,3.20
2022-08-16T07:26:14.409Z,3.30
2022-08-16T07:28:52.035Z,3.47
2022-08-16T07:31:20.415Z,3.88
2022-08-16T07:33:53.664Z,3.67
2022-08-16T07:36:22.902Z,3.22
2022-08-16T07:38:50.249Z,2.90
2022-08-16T07:41:17.445Z,3.50
2022-08-16T07:43:46.244Z,3.42
2022-08-16T07:46:38.363Z,3.33
2022-08-16T07:49:02.429Z,4.10
2022-08-16T07:51:33.279Z,3.53
2022-08-16T07:54:10.207Z,3.65
2022-08-16T07:56:38.054Z,3.30
2022-08-16T07:59:05.933Z,3.38
2022-08-16T08:01:33.329Z,3.38
2022-08-16T08:04:02.881Z,3.25
2022-08-16T08:06:32.379Z,3.50
2022-08-16T08:09:00.374Z,3.40
2022-08-16T08:11:29.721Z,3.42
2022-08-16T08:14:03.108Z,3.58
2022-08-16T08:16:31.801Z,3.78
2022-08-16T08:19:02.673Z,3.83
2022-08-16T08:22:00.957Z,3.25
2022-08-16T08:24:20.808Z,3.70
2022-08-16T08:26:50.014Z,3.38
2022-08-16T08:29:23.142Z,3.42
2022-08-16T08:31:53.025Z,3.30
2022-08-16T08:34:21.203Z,3.75
2022-08-16T08:36:54.266Z,3.65
2022-08-16T08:39:21.724Z,3.70
2022-08-16T08:41:51.160Z,3.60
2022-08-16T08:44:28.035Z,4.03
2022-08-16T08:47:00.606Z,3.92
2022-08-16T08:49:50.577Z,4.00
2022-08-16T08:52:34.217Z,4.10
2022-08-16T08:55:09.306Z,3.97
2022-08-16T08:57:40.579Z,4.10
2022-08-16T09:00:13.511Z,3.90
2022-08-16T09:02:44.304Z,4.72
2022-08-16T09:05:15.624Z,4.53
2022-08-16T09:08:00.888Z,4.32
2022-08-16T09:10:29.993Z,4.07
2022-08-16T09:12:57.854Z,4.28
2022-08-16T09:15:26.466Z,4.00
2022-08-16T09:18:24.524Z,4.20
2022-08-16T09:20:59.106Z,4.05
2022-08-16T09:23:27.795Z,4.32
2022-08-16T09:25:54.706Z,4.28
2022-08-16T09:29:13.939Z,4.25
2022-08-16T09:31:08.603Z,4.05
2022-08-16T09:33:39.387Z,4.80
2022-08-16T09:36:11.874Z,4.38
2022-08-16T09:38:59.931Z,4.63
2022-08-16T09:41:27.198Z,4.10
2022-08-16T09:43:59.632Z,3.92
2022-08-16T09:46:44.738Z,4.55
2022-08-16T09:49:14.774Z,4.25
2022-08-16T09:51:42.489Z,4.53
2022-08-16T09:54:16.744Z,4.57
2022-08-16T09:56:51.359Z,4.90
2022-08-16T09:59:22.500Z,4.72
2022-08-16T10:01:51.723Z,5.07
2022-08-16T10:04:31.618Z,4.72
2022-08-16T10:07:15.638Z,3.95
2022-08-16T10:09:53.665Z,4.88
2022-08-16T10:12:45.756Z,5.10
2022-08-16T10:15:21.065Z,5.40
2022-08-16T10:17:59.992Z,4.90
2022-08-16T10:20:29.516Z,4.90
2022-08-16T10:23:03.655Z,4.65
2022-08-16T10:27:19.264Z,4.68
2022-08-16T10:28:30.703Z,4.85
2022-08-16T10:31:03.606Z,4.47
2022-08-16T10:33:33.958Z,5.10
2022-08-16T10:36:04.384Z,4.28
2022-08-16T10:38:33.403Z,4.80
2022-08-16T10:41:04.562Z,5.03
2022-08-16T10:43:31.452Z,5.40
2022-08-16T10:46:00.905Z,4.63
2022-08-16T10:48:28.555Z,4.82
2022-08-16T10:50:58.637Z,4.50
2022-08-16T10:53:33.165Z,4.40
2022-08-16T10:56:03.081Z,4.88
2022-08-16T10:58:35.865Z,4.50
2022-08-16T11:03:57.394Z,4.43
2022-08-16T11:06:27.903Z,4.78
2022-08-16T11:12:15.014Z,4.60
2022-08-16T11:14:31.864Z,4.40
2022-08-16T11:17:02.542Z,4.28
2022-08-16T11:20:00.659Z,4.40
2022-08-16T11:22:47.232Z,4.70
2022-08-16T11:25:17.505Z,4.53
2022-08-16T11:27:58.547Z,4.68
2022-08-16T11:30:28.432Z,4.80
2022-08-16T11:33:05.959Z,4.80
2022-08-16T11:38:47.393Z,4.95
2022-08-16T11:41:09.717Z,4.50
2022-08-16T11:43:39.316Z,4.80
2022-08-16T11:46:43.038Z,4.35
2022-08-16T11:48:57.149Z,4.55
2022-08-16T11:51:23.714Z,5.25
2022-08-16T11:53:50.279Z,5.20
2022-08-16T11:56:28.585Z,5.05
2022-08-16T11:59:05.934Z,4.82
2022-08-16T12:01:44.547Z,4.53
2022-08-16T12:04:22.288Z,4.70
2022-08-16T12:06:50.063Z,4.78
2022-08-16T12:09:21.875Z,4.78
2022-08-16T12:11:53.003Z,4.93
2022-08-16T12:14:22.996Z,4.78
2022-08-16T12:16:55.556Z,4.68
2022-08-16T12:19:35.586Z,4.30
2022-08-16T12:22:05.327Z,4.70
2022-08-16T12:24:33.229Z,4.90
2022-08-16T12:27:00.967Z,4.80
2022-08-16T12:29:29.500Z,4.25
2022-08-16T12:32:26.586Z,4.63
2022-08-16T12:34:50.731Z,4.57
2022-08-16T12:37:20.465Z,5.10
2022-08-16T12:39:51.240Z,5.05
2022-08-16T12:42:20.438Z,4.88
2022-08-16T12:44:47.575Z,5.07
2022-08-16T12:47:32.866Z,4.47
2022-08-16T12:50:01.795Z,4.38
2022-08-16T12:52:33.435Z,4.38
2022-08-16T12:55:16.935Z,4.55
2022-08-16T12:57:43.565Z,4.68
2022-08-16T13:00:26.383Z,4.50
2022-08-16T13:02:54.116Z,4.60
2022-08-16T13:05:21.980Z,4.32
2022-08-16T13:07:51.270Z,4.55
2022-08-16T13:10:21.476Z,4.75
2022-08-16T13:13:05.961Z,4.32
2022-08-16T13:15:36.242Z,4.07
2022-08-16T13:18:27.215Z,4.88
2022-08-16T13:21:00.970Z,4.70
2022-08-16T13:23:27.699Z,4.28
2022-08-16T13:25:55.385Z,4.65
2022-08-16T13:28:22.617Z,4.38
2022-08-16T13:30:52.600Z,4.10
2022-08-16T13:33:29.246Z,4.70
2022-08-16T13:35:58.836Z,4.40
2022-08-16T13:38:36.448Z,4.50
2022-08-16T13:41:09.026Z,4.90
2022-08-16T13:43:38.052Z,5.18
2022-08-16T13:46:06.670Z,4.63
2022-08-16T13:48:44.067Z,4.43
2022-08-16T13:51:16.900Z,5.55
2022-08-16T13:53:54.201Z,4.10
2022-08-16T13:56:26.687Z,5.07
2022-08-16T13:59:19.183Z,4.20
2022-08-16T14:01:59.880Z,4.57
2022-08-16T14:04:31.622Z,4.93
2022-08-16T14:07:01.370Z,5.13
2022-08-16T14:09:30.143Z,4.97
2022-08-16T14:12:09.507Z,5.20
2022-08-16T14:14:40.175Z,4.57
2022-08-16T14:17:09.715Z,5.20
2022-08-16T14:19:36.802Z,4.30
2022-08-16T14:22:30.506Z,5.40
2022-08-16T14:24:59.368Z,5.18
2022-08-16T14:27:42.231Z,5.38
2022-08-16T14:30:12.103Z,5.25
2022-08-16T14:32:46.538Z,4.57
2022-08-16T14:35:20.725Z,4.68
2022-08-16T14:37:47.378Z,4.70
2022-08-16T14:40:20.274Z,5.15
2022-08-16T14:42:48.526Z,5.03
2022-08-16T14:45:19.376Z,5.57
2022-08-16T14:47:49.671Z,4.50
2022-08-16T14:50:19.801Z,5.10
2022-08-16T14:53:01.223Z,5.45
2022-08-16T14:55:31.891Z,5.45
2022-08-16T14:58:03.373Z,5.05
2022-08-16T15:00:33.949Z,5.35
2022-08-16T15:03:06.245Z,5.00
2022-08-16T15:05:33.069Z,5.05
2022-08-16T15:08:01.742Z,5.20
2022-08-16T15:10:32.190Z,5.05
2022-08-16T15:13:01.251Z,5.82
2022-08-16T15:15:31.611Z,5.22
2022-08-16T15:17:58.949Z,5.15
2022-08-16T15:20:35.912Z,5.45
2022-08-16T15:23:07.319Z,4.78
2022-08-16T15:25:41.483Z,6.07
2022-08-16T15:28:30.534Z,5.22
2022-08-16T15:31:00.881Z,5.30
2022-08-16T15:33:32.069Z,5.25
2022-08-16T15:35:59.703Z,5.32
2022-08-16T15:38:54.999Z,4.43
2022-08-16T15:41:42.990Z,4.78
2022-08-16T15:44:21.194Z,5.35
2022-08-16T15:46:54.717Z,5.68
2022-08-16T15:49:22.843Z,4.70
2022-08-16T15:51:54.131Z,5.30
2022-08-16T15:54:30.740Z,5.07
2022-08-16T15:57:09.687Z,4.80
2022-08-16T15:59:48.671Z,5.80
2022-08-16T16:02:27.483Z,5.28
2022-08-16T16:04:54.679Z,5.68
2022-08-16T16:07:21.968Z,5.13
2022-08-16T16:09:48.983Z,5.45
2022-08-16T16:15:06.629Z,5.65
2022-08-16T16:17:34.402Z,5.35
2022-08-16T16:20:04.238Z,5.63
2022-08-16T16:22:31.878Z,5.45
2022-08-16T16:24:58.559Z,5.63
2022-08-16T16:27:25.481Z,5.80
2022-08-16T16:29:58.087Z,5.13
2022-08-16T16:32:34.185Z,5.20
2022-08-16T16:35:02.792Z,4.60
2022-08-16T16:37:31.168Z,4.45
2022-08-16T16:39:58.875Z,4.80
2022-08-16T16:42:29.495Z,5.22
2022-08-16T16:45:01.210Z,5.37
2022-08-16T16:47:41.444Z,5.00
2022-08-16T16:50:09.395Z,5.47
2022-08-16T16:52:44.691Z,5.65
2022-08-16T16:55:13.371Z,5.95
2022-08-16T16:58:01.191Z,5.15
2022-08-16T17:03:16.999Z,5.78
2022-08-16T17:05:57.223Z,5.47
2022-08-16T17:08:30.845Z,5.78
2022-08-16T17:10:58.191Z,6.43
2022-08-16T17:13:27.162Z,6.45
2022-08-16T17:15:54.372Z,6.05
2022-08-16T17:19:14.872Z,5.57
2022-08-16T17:21:09.947Z,5.18
2022-08-16T17:23:58.809Z,5.50
2022-08-16T17:26:30.204Z,5.45
2022-08-16T17:29:02.678Z,5.72
2022-08-16T17:31:40.888Z,6.53
2022-08-16T17:34:28.986Z,6.35
2022-08-16T17:36:59.441Z,6.28
2022-08-16T17:39:29.574Z,5.40
2022-08-16T17:42:00.914Z,5.60
2022-08-16T17:46:54.444Z,5.90
2022-08-16T17:49:21.716Z,5.22
2022-08-16T17:51:48.674Z,5.60
2022-08-16T17:54:30.075Z,6.38
2022-08-16T17:57:01.111Z,5.93
2022-08-16T17:59:28.963Z,5.25
2022-08-16T18:01:56.236Z,5.47
2022-08-16T18:04:45.209Z,5.60
2022-08-16T18:07:10.357Z,4.97
2022-08-16T18:09:40.784Z,5.00
2022-08-16T18:12:33.986Z,6.22
2022-08-16T18:15:07.813Z,5.57
2022-08-16T18:17:34.688Z,5.55
2022-08-16T18:20:01.355Z,4.47
2022-08-16T18:22:34.636Z,4.80
2022-08-16T18:25:01.410Z,5.97
2022-08-16T18:27:29.802Z,5.10
2022-08-16T18:29:56.468Z,5.07
2022-08-16T18:32:24.739Z,4.70
2022-08-16T18:34:54.123Z,4.93
2022-08-16T18:37:21.520Z,5.40
2022-08-16T18:39:48.263Z,5.53
2022-08-16T18:42:15.126Z,5.65
2022-08-16T18:44:45.304Z,5.07
2022-08-16T18:47:13.643Z,5.13
2022-08-16T18:49:41.145Z,4.72
2022-08-16T18:52:25.507Z,5.18
2022-08-16T18:55:03.147Z,5.20
2022-08-16T18:57:41.917Z,5.03
2022-08-16T19:00:12.361Z,4.70
2022-08-16T19:02:56.177Z,4.88
2022-08-16T19:05:29.692Z,4.78
2022-08-16T19:07:56.578Z,4.57
2022-08-16T19:10:23.267Z,5.55
2022-08-16T19:12:50.100Z,4.13
2022-08-16T19:15:21.712Z,4.85
2022-08-16T19:17:48.799Z,4.43
2022-08-16T19:20:19.544Z,4.63
2022-08-16T19:23:04.686Z,4.95
2022-08-16T19:25:48.102Z,4.75
2022-08-16T19:28:51.246Z,4.95
2022-08-16T19:31:20.880Z,4.65
2022-08-16T19:33:53.707Z,4.75
2022-08-16T19:36:31.480Z,4.60
2022-08-16T19:39:09.014Z,5.57
2022-08-16T19:41:38.332Z,5.03
2022-08-16T19:44:05.966Z,5.45
2022-08-16T19:46:33.139Z,5.13
2022-08-16T19:49:00.532Z,5.07
2022-08-16T19:51:28.027Z,4.50
2022-08-16T19:53:54.664Z,4.60
2022-08-16T19:56:25.727Z,4.40
2022-08-16T20:01:42.502Z,4.07
2022-08-16T20:04:12.600Z,4.20
2022-08-16T20:06:39.908Z,4.05
2022-08-16T20:09:07.151Z,4.05
2022-08-16T20:11:35.266Z,5.00
2022-08-16T20:14:02.779Z,4.80
2022-08-16T20:16:33.366Z,5.18
2022-08-16T20:19:00.235Z,4.75
2022-08-16T20:21:26.887Z,4.68
2022-08-16T20:24:01.313Z,4.60
2022-08-16T20:26:39.764Z,4.18
2022-08-16T20:29:06.943Z,4.60
2022-08-16T20:31:33.571Z,4.57
2022-08-16T20:34:00.488Z,4.60
2022-08-16T20:36:27.174Z,4.55
2022-08-16T20:38:54.148Z,4.15
2022-08-16T20:41:20.691Z,4.53
2022-08-16T20:43:48.674Z,4.82
2022-08-16T20:46:15.653Z,4.65
2022-08-16T20:48:42.349Z,4.55
2022-08-16T20:51:10.849Z,4.25
2022-08-16T20:53:41.978Z,4.50
2022-08-16T20:58:35.616Z,4.45
2022-08-16T21:01:02.591Z,4.30
2022-08-16T21:03:29.417Z,4.40
2022-08-16T21:05:58.192Z,4.45
2022-08-16T21:08:50.185Z,5.15
2022-08-16T21:11:12.215Z,4.50
2022-08-16T21:13:42.651Z,4.80
2022-08-16T21:16:09.939Z,4.80
2022-08-16T21:18:36.537Z,5.13
2022-08-16T21:21:03.187Z,4.55
2022-08-16T21:23:30.115Z,4.65
2022-08-16T21:25:58.456Z,4.80
2022-08-16T21:28:41.719Z,5.15
2022-08-16T21:31:16.713Z,4.57
2022-08-16T21:33:47.501Z,4.35
2022-08-16T21:36:35.248Z,4.38
2022-08-16T21:39:05.802Z,5.30
2022-08-16T21:41:33.093Z,4.88
2022-08-16T21:43:59.643Z,5.25
2022-08-16T21:46:27.120Z,4.55
2022-08-16T21:48:53.805Z,4.57
2022-08-16T21:51:20.647Z,5.60
2022-08-16T21:53:47.348Z,5.10
2022-08-16T21:56:17.053Z,4.45
2022-08-16T21:58:45.971Z,4.82
2022-08-16T22:01:15.222Z,5.18
2022-08-16T22:03:42.815Z,4.95
2022-08-16T22:06:13.023Z,5.35
2022-08-16T22:08:50.619Z,5.20
2022-08-16T22:11:21.143Z,4.93
2022-08-16T22:13:57.284Z,5.03
2022-08-16T22:16:32.007Z,4.85
2022-08-16T22:18:59.906Z,5.03
2022-08-16T22:21:28.430Z,5.32
2022-08-16T22:23:57.628Z,4.95
2022-08-16T22:26:31.766Z,5.43
2022-08-16T22:29:00.781Z,4.97
2022-08-16T22:31:27.818Z,5.10
2022-08-16T22:33:55.970Z,5.60
2022-08-16T22:36:22.643Z,5.22
2022-08-16T22:38:56.489Z,4.80
2022-08-16T22:41:24.912Z,5.63
2022-08-16T22:43:52.033Z,4.72
2022-08-16T22:46:19.670Z,6.28
2022-08-16T22:48:50.067Z,5.43
2022-08-16T22:51:21.586Z,5.22
2022-08-16T22:53:48.354Z,5.32
2022-08-16T22:56:15.766Z,5.43
2022-08-16T22:58:42.818Z,5.53
2022-08-16T23:01:10.669Z,5.13
2022-08-16T23:03:38.353Z,5.53
2022-08-16T23:06:06.880Z,4.90
2022-08-16T23:08:39.315Z,5.97
2022-08-16T23:11:21.048Z,4.95
2022-08-16T23:13:54.381Z,5.90
2022-08-16T23:16:33.396Z,5.78
2022-08-16T23:19:11.080Z,5.93
2022-08-16T23:21:40.801Z,5.07
2022-08-16T23:24:08.549Z,5.72
2022-08-16T23:26:36.327Z,5.28
2022-08-16T23:29:23.275Z,6.35
2022-08-16T23:31:58.263Z,5.13
2022-08-16T23:34:27.286Z,6.18
2022-08-16T23:36:54.424Z,6.22
2022-08-16T23:39:21.917Z,5.07
2022-08-16T23:41:48.512Z,5.80
2022-08-16T23:44:58.590Z,5.78
2022-08-16T23:47:02.075Z,5.47
2022-08-16T23:49:58.439Z,5.75
2022-08-16T23:52:18.143Z,5.70
2022-08-16T23:54:44.819Z,5.75
2022-08-16T23:57:11.423Z,5.68
2022-08-16T23:59:52.144Z,5.88
